北京 の空港の天気 - METARとTAF

北京首都国際空港 ( ZBAA / PEK ) - 中国 北京市
飛行場実況気象(Metar)
観測時間01/21 21:00 CST (01/21 13:00 UTC)
風向・風速西北西 5m/s
視程10km以上
天気現象
なし
気温6℃
湿度11%
気圧1021hPa
METARZBAA 211300Z 29005MPS CAVOK 06/M22 Q1021 NOSIG
過去の天気等 Google飛行場航空写真 Wunderground天気予報

過去48時間のMETAR

飛行場予報(TAF)
発表時間: 1/21 17:20 CST (1/21 09:20 UTC)
予報対象時間: 21日20時 CST ~ 22日20時 CST
風向・風速北西 4m/s
視程10km以上
なし
TAF ZBAA 210920Z 2112/2212 32004MPS CAVOK TX09/2207Z TNM03/21Z